createdAt,value
2022-11-08T00:02:00.057Z,100059.34
2022-11-08T00:07:21.847Z,100044.31
2022-11-08T00:12:42.308Z,100053.84
2022-11-08T00:17:45.362Z,100049.28
2022-11-08T00:22:49.548Z,100052.16
2022-11-08T00:27:52.423Z,100052.69
2022-11-08T00:32:55.199Z,100055.38
2022-11-08T00:37:59.344Z,100044.75
2022-11-08T00:43:02.112Z,100047.00
2022-11-08T00:48:05.356Z,100047.97
2022-11-08T00:53:09.502Z,100041.06
2022-11-08T00:58:12.262Z,100030.53
2022-11-08T01:03:20.763Z,100033.28
2022-11-08T01:08:25.302Z,100025.19
2022-11-08T01:13:28.136Z,100029.41
2022-11-08T01:18:30.898Z,100026.84
2022-11-08T01:23:35.640Z,100024.03
2022-11-08T01:28:38.948Z,100026.84
2022-11-08T01:33:44.658Z,100014.81
2022-11-08T01:38:53.236Z,100023.59
2022-11-08T01:43:56.685Z,100007.31
2022-11-08T01:49:09.668Z,100014.00
2022-11-08T01:54:20.031Z,100012.53
2022-11-08T01:59:22.948Z,100015.66
2022-11-08T02:04:30.557Z,99998.88
2022-11-08T02:09:37.494Z,99998.63
2022-11-08T02:14:40.456Z,99999.59
2022-11-08T02:19:46.820Z,99993.34
2022-11-08T02:24:51.059Z,99996.47
2022-11-08T02:29:54.663Z,99996.19
2022-11-08T02:35:00.176Z,99994.63
2022-11-08T02:40:04.958Z,99987.81
2022-11-08T02:45:10.093Z,99982.16
2022-11-08T02:50:12.911Z,99983.00
2022-11-08T02:55:17.263Z,99968.88
2022-11-08T03:00:20.216Z,99968.81
2022-11-08T03:05:23.996Z,99966.94
2022-11-08T03:10:29.139Z,99964.56
2022-11-08T03:15:32.161Z,99964.84
2022-11-08T03:20:34.944Z,99964.28
2022-11-08T03:25:39.278Z,99965.28
2022-11-08T03:30:42.120Z,99964.84
2022-11-08T03:35:44.867Z,99958.41
2022-11-08T03:40:49.039Z,99959.91
2022-11-08T03:45:51.851Z,99949.31
2022-11-08T03:50:54.675Z,99943.78
2022-11-08T03:56:00.461Z,99936.25
2022-11-08T04:01:05.719Z,99938.41
2022-11-08T04:06:09.126Z,99937.84
2022-11-08T04:11:30.805Z,99919.03
2022-11-08T04:16:34.455Z,99912.78
2022-11-08T04:21:37.402Z,99914.06
2022-11-08T04:26:41.831Z,99900.72
2022-11-08T04:31:44.576Z,99892.09
2022-11-08T04:36:47.175Z,99889.00
2022-11-08T04:41:51.264Z,99883.88
2022-11-08T04:46:54.038Z,99883.75
2022-11-08T04:51:56.847Z,99874.69
2022-11-08T04:57:00.963Z,99867.63
2022-11-08T05:02:04.133Z,99863.69
2022-11-08T05:07:07.026Z,99872.19
2022-11-08T05:12:11.214Z,99878.91
2022-11-08T05:17:14.152Z,99882.16
2022-11-08T05:22:34.283Z,99887.25
2022-11-08T05:27:38.386Z,99875.22
2022-11-08T05:32:41.233Z,99869.84
2022-11-08T05:37:44.031Z,99867.72
2022-11-08T05:42:48.211Z,99861.16
2022-11-08T05:47:50.959Z,99849.84
2022-11-08T05:52:55.020Z,99851.56
2022-11-08T05:57:59.153Z,99857.06
2022-11-08T06:03:02.876Z,99853.53
2022-11-08T06:08:05.968Z,99850.00
2022-11-08T06:13:10.103Z,99838.25
2022-11-08T06:18:12.868Z,99834.53
2022-11-08T06:23:15.951Z,99842.59
2022-11-08T06:28:20.568Z,99837.22
2022-11-08T06:33:23.432Z,99833.53
2022-11-08T06:38:26.292Z,99825.63
2022-11-08T06:43:30.487Z,99833.06
2022-11-08T06:48:36.116Z,99835.03
2022-11-08T06:53:39.156Z,99837.66
2022-11-08T06:58:43.281Z,99826.25
2022-11-08T07:03:46.170Z,99825.44
2022-11-08T07:08:48.925Z,99818.81
2022-11-08T07:13:52.881Z,99815.13
2022-11-08T07:18:55.790Z,99813.47
2022-11-08T07:23:58.690Z,99787.91
2022-11-08T07:29:02.862Z,99776.22
2022-11-08T07:34:05.655Z,99772.66
2022-11-08T07:39:08.488Z,99770.84
2022-11-08T07:44:13.083Z,99754.66
2022-11-08T07:49:15.851Z,99751.94
2022-11-08T07:54:18.632Z,99744.03
2022-11-08T07:59:22.797Z,99749.09
2022-11-08T08:04:25.549Z,99749.16
2022-11-08T08:09:28.352Z,99733.53
2022-11-08T08:14:32.499Z,99731.69
2022-11-08T08:19:35.295Z,99723.44
2022-11-08T08:24:38.043Z,99741.47
2022-11-08T08:29:42.172Z,99724.72
2022-11-08T08:34:44.956Z,99721.94
2022-11-08T08:39:47.853Z,99721.56
2022-11-08T08:44:52.012Z,99720.78
2022-11-08T08:49:54.948Z,99725.28
2022-11-08T08:54:57.761Z,99733.38
2022-11-08T09:05:24.697Z,99740.78
2022-11-08T09:10:28.151Z,99738.91
2022-11-08T09:15:32.392Z,99740.94
2022-11-08T09:20:35.163Z,99729.44
2022-11-08T09:25:38.282Z,99714.41
2022-11-08T09:30:42.438Z,99716.63
2022-11-08T09:35:46.225Z,99712.06
2022-11-08T09:41:02.126Z,99707.41
2022-11-08T09:46:10.504Z,99695.84
2022-11-08T09:51:15.243Z,99699.44
2022-11-08T09:56:24.196Z,99689.81
2022-11-08T10:01:32.018Z,99686.03
2022-11-08T10:07:02.474Z,99676.91
2022-11-08T10:12:17.563Z,99684.16
2022-11-08T10:17:44.353Z,99665.84
2022-11-08T10:22:55.567Z,99662.31
2022-11-08T10:28:01.613Z,99667.84
2022-11-08T10:33:18.169Z,99663.19
2022-11-08T10:38:24.710Z,99672.00
2022-11-08T10:43:35.293Z,99658.91
2022-11-08T10:48:40.204Z,99660.13
2022-11-08T10:53:45.512Z,99670.63
2022-11-08T10:58:48.338Z,99671.66
2022-11-08T11:03:53.952Z,99663.91
2022-11-08T11:08:58.269Z,99653.25
2022-11-08T11:14:16.166Z,99641.31
2022-11-08T11:19:27.397Z,99634.59
2022-11-08T11:24:30.695Z,99638.69
2022-11-08T11:29:34.876Z,99619.13
2022-11-08T11:34:49.334Z,99616.88
2022-11-08T11:40:01.171Z,99622.72
2022-11-08T11:45:13.914Z,99604.72
2022-11-08T11:55:32.279Z,99588.78
2022-11-08T12:00:40.280Z,99584.84
2022-11-08T12:06:00.205Z,99582.94
2022-11-08T12:11:20.074Z,99579.84
2022-11-08T12:16:30.002Z,99574.34
2022-11-08T12:21:41.206Z,99569.09
2022-11-08T12:26:52.315Z,99562.25
2022-11-08T12:32:15.176Z,99565.78
2022-11-08T12:37:34.620Z,99569.69
2022-11-08T12:42:58.165Z,99575.66
2022-11-08T12:48:10.748Z,99582.88
2022-11-08T12:53:40.556Z,99572.44
2022-11-08T12:58:45.214Z,99568.28
2022-11-08T13:04:35.447Z,99560.16
2022-11-08T13:09:48.260Z,99578.72
2022-11-08T13:14:51.383Z,99570.28
2022-11-08T13:20:04.686Z,99551.41
2022-11-08T13:25:35.357Z,99544.38
2022-11-08T13:30:40.836Z,99554.91
2022-11-08T13:35:53.632Z,99544.03
2022-11-08T13:41:15.865Z,99554.44
2022-11-08T13:46:47.844Z,99564.25
2022-11-08T13:51:51.540Z,99566.84
2022-11-08T13:56:56.281Z,99574.97
2022-11-08T14:02:00.859Z,99552.97
2022-11-08T14:07:10.888Z,99562.56
2022-11-08T14:12:19.535Z,99565.06
2022-11-08T14:17:40.683Z,99553.56
2022-11-08T14:22:49.969Z,99569.72
2022-11-08T14:27:54.796Z,99578.06
2022-11-08T14:33:09.131Z,99581.06
2022-11-08T14:38:15.264Z,99572.00
2022-11-08T14:43:20.356Z,99563.59
2022-11-08T14:48:25.748Z,99566.78
2022-11-08T14:53:30.308Z,99568.50
2022-11-08T14:58:34.634Z,99562.06
2022-11-08T15:03:38.320Z,99551.13
2022-11-08T15:08:49.289Z,99553.34
2022-11-08T15:13:53.481Z,99545.94
2022-11-08T15:18:56.536Z,99550.59
2022-11-08T15:24:13.223Z,99524.97
2022-11-08T15:29:19.683Z,99524.63
2022-11-08T15:34:24.184Z,99509.38
2022-11-08T15:39:37.417Z,99511.84
2022-11-08T15:45:00.005Z,99507.09
2022-11-08T15:50:03.089Z,99514.91
2022-11-08T15:55:06.648Z,99521.16
2022-11-08T16:00:16.503Z,99514.72
2022-11-08T16:05:21.343Z,99517.63
2022-11-08T16:10:30.975Z,99504.59
2022-11-08T16:15:36.629Z,99507.69
2022-11-08T16:20:39.774Z,99516.09
2022-11-08T16:25:45.413Z,99504.63
2022-11-08T16:30:49.871Z,99501.75
2022-11-08T16:35:56.944Z,99500.25
2022-11-08T16:40:59.705Z,99504.28
2022-11-08T16:46:07.722Z,99502.28
2022-11-08T16:51:19.358Z,99506.50
2022-11-08T16:56:22.426Z,99501.44
2022-11-08T17:01:32.187Z,99493.50
2022-11-08T17:06:35.096Z,99499.25
2022-11-08T17:11:39.708Z,99483.53
2022-11-08T17:16:43.967Z,99502.78
2022-11-08T17:21:46.762Z,99510.53
2022-11-08T17:26:49.622Z,99501.59
2022-11-08T17:31:53.849Z,99497.72
2022-11-08T17:36:56.638Z,99506.84
2022-11-08T17:42:00.001Z,99513.09
2022-11-08T17:47:04.814Z,99512.41
2022-11-08T17:52:07.705Z,99516.97
2022-11-08T17:57:10.871Z,99534.00
2022-11-08T18:02:15.265Z,99525.06
2022-11-08T18:07:18.248Z,99510.38
2022-11-08T18:12:21.277Z,99515.09
2022-11-08T18:17:27.060Z,99518.97
2022-11-08T18:22:29.951Z,99515.78
2022-11-08T18:27:33.610Z,99526.25
2022-11-08T18:32:38.657Z,99519.31
2022-11-08T18:37:41.574Z,99525.91
2022-11-08T18:42:44.455Z,99518.47
2022-11-08T18:47:48.664Z,99518.97
2022-11-08T18:52:51.507Z,99518.97
2022-11-08T18:57:54.318Z,99524.72
2022-11-08T19:02:58.484Z,99496.19
2022-11-08T19:08:01.405Z,99490.31
2022-11-08T19:13:04.207Z,99487.41
2022-11-08T19:18:08.375Z,99504.97
2022-11-08T19:23:11.166Z,99517.78
2022-11-08T19:28:13.970Z,99513.75
2022-11-08T19:33:18.426Z,99509.88
2022-11-08T19:38:22.404Z,99513.09
2022-11-08T19:43:25.297Z,99510.88
2022-11-08T19:48:29.740Z,99506.31
2022-11-08T19:53:33.067Z,99506.31
2022-11-08T19:58:37.278Z,99505.97
2022-11-08T20:03:41.908Z,99504.13
2022-11-08T20:08:48.228Z,99517.28
2022-11-08T20:13:51.841Z,99515.78
2022-11-08T20:19:01.722Z,99537.03
2022-11-08T20:24:04.878Z,99527.91
2022-11-08T20:29:08.145Z,99518.28
2022-11-08T20:34:13.325Z,99531.66
2022-11-08T20:39:16.838Z,99539.06
2022-11-08T20:44:20.111Z,99537.19
2022-11-08T20:49:24.288Z,99536.53
2022-11-08T20:54:27.140Z,99536.88
2022-11-08T20:59:29.941Z,99537.19
2022-11-08T21:04:34.068Z,99539.03
2022-11-08T21:09:48.982Z,99550.50
2022-11-08T21:14:52.720Z,99550.50
2022-11-08T21:19:56.847Z,99541.38
2022-11-08T21:24:59.612Z,99540.72
2022-11-08T21:30:02.387Z,99546.28
2022-11-08T21:35:07.462Z,99542.06
2022-11-08T21:40:11.374Z,99544.94
2022-11-08T21:45:14.189Z,99547.63
2022-11-08T21:50:20.164Z,99572.72
2022-11-08T21:55:22.983Z,99573.84
2022-11-08T22:00:25.773Z,99565.31
2022-11-08T22:05:29.981Z,99581.31
2022-11-08T22:10:32.775Z,99580.63
2022-11-08T22:15:35.556Z,99575.56
2022-11-08T22:21:00.189Z,99573.34
2022-11-08T22:26:03.300Z,99573.19
2022-11-08T22:31:06.280Z,99565.09
2022-11-08T22:36:11.688Z,99563.59
2022-11-08T22:41:16.493Z,99559.53
2022-11-08T22:46:19.350Z,99565.94
2022-11-08T22:51:23.558Z,99561.06
2022-11-08T22:56:26.313Z,99552.28
2022-11-08T23:01:29.189Z,99558.34
2022-11-08T23:06:33.631Z,99559.03
2022-11-08T23:11:53.820Z,99551.28
2022-11-08T23:16:56.575Z,99551.66
2022-11-08T23:22:18.278Z,99551.47
2022-11-08T23:27:38.567Z,99540.88
2022-11-08T23:32:44.091Z,99544.22
2022-11-08T23:37:48.503Z,99551.69
2022-11-08T23:43:21.167Z,99555.09
2022-11-08T23:48:24.406Z,99555.66
2022-11-08T23:53:29.473Z,99550.94
2022-11-08T23:58:33.345Z,99551.44
